createdAt,value
2022-10-08T00:03:56.224Z,12.19
2022-10-08T00:09:02.203Z,12.27
2022-10-08T00:14:05.858Z,12.23
2022-10-08T00:19:11.963Z,12.18
2022-10-08T00:24:18.275Z,12.11
2022-10-08T00:29:22.551Z,12.04
2022-10-08T00:34:25.473Z,11.99
2022-10-08T00:39:29.619Z,12.07
2022-10-08T00:44:55.054Z,12.08
2022-10-08T00:50:00.204Z,12.00
2022-10-08T00:55:07.439Z,11.98
2022-10-08T01:00:14.305Z,11.90
2022-10-08T01:05:20.670Z,11.78
2022-10-08T01:10:34.005Z,11.71
2022-10-08T01:15:42.474Z,11.72
2022-10-08T01:20:53.135Z,11.75
2022-10-08T01:26:04.824Z,11.72
2022-10-08T01:31:12.462Z,11.81
2022-10-08T01:36:18.489Z,11.83
2022-10-08T01:41:25.234Z,11.68
2022-10-08T01:46:32.725Z,11.63
2022-10-08T01:51:41.805Z,11.63
2022-10-08T01:56:47.060Z,11.67
2022-10-08T02:01:56.412Z,11.62
2022-10-08T02:07:02.072Z,11.59
2022-10-08T02:12:05.991Z,11.58
2022-10-08T02:17:23.780Z,11.74
2022-10-08T02:22:34.257Z,12.04
2022-10-08T02:27:45.309Z,12.08
2022-10-08T02:33:09.849Z,12.14
2022-10-08T02:38:18.426Z,12.08
2022-10-08T02:43:25.581Z,12.00
2022-10-08T02:48:32.611Z,11.90
2022-10-08T02:53:39.052Z,11.96
2022-10-08T02:58:43.141Z,12.16
2022-10-08T03:03:53.628Z,12.16
2022-10-08T03:08:59.096Z,12.29
2022-10-08T03:14:05.508Z,12.23
2022-10-08T03:19:12.230Z,12.32
2022-10-08T03:24:16.719Z,12.43
2022-10-08T03:29:19.515Z,12.42
2022-10-08T03:34:25.669Z,12.48
2022-10-08T03:39:28.422Z,12.50
2022-10-08T03:44:31.184Z,12.70
2022-10-08T03:49:35.794Z,12.42
2022-10-08T03:54:39.058Z,12.27
2022-10-08T03:59:41.763Z,12.51
2022-10-08T04:04:45.842Z,12.41
2022-10-08T04:09:48.644Z,12.13
2022-10-08T04:14:51.387Z,12.17
2022-10-08T04:19:57.206Z,12.22
2022-10-08T04:25:00.017Z,12.35
2022-10-08T04:30:02.783Z,12.30
2022-10-08T04:35:10.620Z,12.47
2022-10-08T04:40:13.359Z,12.25
2022-10-08T04:45:16.219Z,12.36
2022-10-08T04:50:20.421Z,12.37
2022-10-08T04:55:24.777Z,12.27
2022-10-08T05:00:27.997Z,12.36
2022-10-08T05:05:32.133Z,12.22
2022-10-08T05:10:35.190Z,12.16
2022-10-08T05:15:37.935Z,12.13
2022-10-08T05:20:42.128Z,12.15
2022-10-08T05:25:44.855Z,12.22
2022-10-08T05:30:47.633Z,12.04
2022-10-08T05:35:52.125Z,12.33
2022-10-08T05:40:54.822Z,12.13
2022-10-08T05:45:58.888Z,12.31
2022-10-08T05:51:07.626Z,12.18
2022-10-08T05:56:12.977Z,12.08
2022-10-08T06:01:17.342Z,11.96
2022-10-08T06:06:22.713Z,12.14
2022-10-08T06:11:25.728Z,12.20
2022-10-08T06:16:30.667Z,12.35
2022-10-08T06:21:35.919Z,12.38
2022-10-08T06:26:40.440Z,12.35
2022-10-08T06:31:45.601Z,12.30
2022-10-08T06:36:50.037Z,12.27
2022-10-08T06:41:52.828Z,12.20
2022-10-08T06:46:56.494Z,12.40
2022-10-08T06:52:00.656Z,12.51
2022-10-08T06:57:03.405Z,12.44
2022-10-08T07:02:06.209Z,12.41
2022-10-08T07:07:10.329Z,14.47
2022-10-08T07:12:14.766Z,16.01
2022-10-08T07:17:17.657Z,15.49
2022-10-08T07:22:22.155Z,14.75
2022-10-08T07:27:24.939Z,14.28
2022-10-08T07:32:27.703Z,14.25
2022-10-08T07:37:31.801Z,14.21
2022-10-08T07:42:34.664Z,13.82
2022-10-08T07:47:37.454Z,14.19
2022-10-08T07:52:41.582Z,14.02
2022-10-08T07:57:44.303Z,14.43
2022-10-08T08:02:49.366Z,14.92
2022-10-08T08:07:53.807Z,14.58
2022-10-08T08:12:56.552Z,15.15
2022-10-08T08:17:59.571Z,14.94
2022-10-08T08:23:03.650Z,15.00
2022-10-08T08:28:06.469Z,15.20
2022-10-08T08:33:09.250Z,14.94
2022-10-08T08:38:13.393Z,15.10
2022-10-08T08:43:16.750Z,15.30
2022-10-08T08:48:24.425Z,15.13
2022-10-08T08:53:29.013Z,15.55
2022-10-08T08:58:37.357Z,15.49
2022-10-08T09:03:43.753Z,16.48
2022-10-08T09:08:51.936Z,16.54
2022-10-08T09:13:57.599Z,15.56
2022-10-08T09:19:00.476Z,14.68
2022-10-08T09:24:04.727Z,14.72
2022-10-08T09:29:07.500Z,15.25
2022-10-08T09:34:18.812Z,15.15
2022-10-08T09:39:25.113Z,14.92
2022-10-08T09:44:27.924Z,15.37
2022-10-08T09:49:32.825Z,15.61
2022-10-08T09:54:43.234Z,15.59
2022-10-08T09:59:52.388Z,15.51
2022-10-08T10:04:56.514Z,15.32
2022-10-08T10:10:03.441Z,15.54
2022-10-08T10:15:16.187Z,15.61
2022-10-08T10:20:23.181Z,15.44
2022-10-08T10:25:35.792Z,15.53
2022-10-08T10:30:50.958Z,15.52
2022-10-08T10:35:56.967Z,15.56
2022-10-08T10:41:12.513Z,15.68
2022-10-08T10:46:32.522Z,15.48
2022-10-08T10:51:57.971Z,15.90
2022-10-08T10:57:05.957Z,16.23
2022-10-08T11:02:17.860Z,16.21
2022-10-08T11:07:50.741Z,15.89
2022-10-08T11:13:01.284Z,15.75
2022-10-08T11:18:19.017Z,15.17
2022-10-08T11:23:36.172Z,13.91
2022-10-08T11:28:50.228Z,13.33
2022-10-08T11:33:56.785Z,12.78
2022-10-08T11:39:11.669Z,12.55
2022-10-08T11:44:18.176Z,12.88
2022-10-08T11:49:50.797Z,13.46
2022-10-08T11:54:55.964Z,13.80
2022-10-08T12:00:08.319Z,13.73
2022-10-08T12:05:30.366Z,13.84
2022-10-08T12:10:34.850Z,13.67
2022-10-08T12:16:06.861Z,13.96
2022-10-08T12:21:54.039Z,14.20
2022-10-08T12:27:41.237Z,14.17
2022-10-08T12:32:58.123Z,14.32
2022-10-08T12:38:09.902Z,14.62
2022-10-08T12:43:22.280Z,14.50
2022-10-08T12:48:36.075Z,14.20
2022-10-08T12:53:44.787Z,14.39
2022-10-08T12:58:49.394Z,14.37
2022-10-08T13:04:17.026Z,14.48
2022-10-08T13:09:27.089Z,14.62
2022-10-08T13:14:33.252Z,14.67
2022-10-08T13:19:39.299Z,14.96
2022-10-08T13:24:44.057Z,15.28
2022-10-08T13:29:46.827Z,15.47
2022-10-08T13:34:53.215Z,14.90
2022-10-08T13:39:57.508Z,14.36
2022-10-08T13:45:01.566Z,14.07
2022-10-08T13:50:06.256Z,13.85
2022-10-08T13:55:22.426Z,13.25
2022-10-08T14:00:25.437Z,13.36
2022-10-08T14:05:31.578Z,13.23
2022-10-08T14:10:34.567Z,13.16
2022-10-08T14:15:37.299Z,13.00
2022-10-08T14:20:41.611Z,13.15
2022-10-08T14:25:44.411Z,13.24
2022-10-08T14:30:47.200Z,13.31
2022-10-08T14:35:54.394Z,13.10
2022-10-08T14:41:00.619Z,13.01
2022-10-08T14:46:03.606Z,13.09
2022-10-08T14:51:08.159Z,13.14
2022-10-08T14:56:12.753Z,13.05
2022-10-08T15:01:15.869Z,13.13
2022-10-08T15:06:20.621Z,13.02
2022-10-08T15:11:23.448Z,13.06
2022-10-08T15:16:26.394Z,13.14
2022-10-08T15:21:30.647Z,13.06
2022-10-08T15:26:33.566Z,13.01
2022-10-08T15:31:36.369Z,13.14
2022-10-08T15:36:40.463Z,13.37
2022-10-08T15:41:44.811Z,13.38
2022-10-08T15:46:47.855Z,12.85
2022-10-08T15:51:51.926Z,12.48
2022-10-08T15:56:54.849Z,12.47
2022-10-08T16:01:58.014Z,12.16
2022-10-08T16:07:02.173Z,12.10
2022-10-08T16:12:05.326Z,12.05
2022-10-08T16:17:08.726Z,11.81
2022-10-08T16:22:12.842Z,11.92
2022-10-08T16:27:15.857Z,11.96
2022-10-08T16:32:18.637Z,11.68
2022-10-08T16:37:22.806Z,11.89
2022-10-08T16:42:25.838Z,11.86
2022-10-08T16:47:28.937Z,11.44
2022-10-08T16:52:33.514Z,11.31
2022-10-08T16:57:36.294Z,11.13
2022-10-08T17:02:39.050Z,11.07
2022-10-08T17:07:43.499Z,11.04
2022-10-08T17:12:46.837Z,10.95
2022-10-08T17:17:54.646Z,10.86
2022-10-08T17:22:59.724Z,10.80
2022-10-08T17:28:02.602Z,10.73
2022-10-08T17:33:05.533Z,10.79
2022-10-08T17:38:09.776Z,10.79
2022-10-08T17:43:12.680Z,10.64
2022-10-08T17:48:15.481Z,10.60
2022-10-08T17:53:19.680Z,10.65
2022-10-08T17:58:22.445Z,10.69
2022-10-08T18:03:25.363Z,10.82
2022-10-08T18:08:29.613Z,10.92
2022-10-08T18:13:33.594Z,10.84
2022-10-08T18:18:36.979Z,10.72
2022-10-08T18:23:42.896Z,10.62
2022-10-08T18:28:48.213Z,10.50
2022-10-08T18:33:52.708Z,10.44
2022-10-08T18:38:58.791Z,10.48
2022-10-08T18:44:04.425Z,10.74
2022-10-08T18:49:08.278Z,10.61
2022-10-08T18:54:13.300Z,10.61
2022-10-08T18:59:17.436Z,10.82
2022-10-08T19:04:24.029Z,10.88
2022-10-08T19:09:28.355Z,10.94
2022-10-08T19:14:31.097Z,11.08
2022-10-08T19:19:33.973Z,11.03
2022-10-08T19:24:41.033Z,11.01
2022-10-08T19:29:44.192Z,11.01
2022-10-08T19:34:47.045Z,10.94
2022-10-08T19:39:51.286Z,10.84
2022-10-08T19:44:54.158Z,10.68
2022-10-08T19:49:57.770Z,10.63
2022-10-08T19:55:02.013Z,10.67
2022-10-08T20:00:05.942Z,10.56
2022-10-08T20:05:09.739Z,10.44
2022-10-08T20:10:16.586Z,10.33
2022-10-08T20:15:19.436Z,10.31
2022-10-08T20:20:33.029Z,10.25
2022-10-08T20:25:37.677Z,10.21
2022-10-08T20:30:42.770Z,10.22
2022-10-08T20:35:45.615Z,10.23
2022-10-08T20:40:49.820Z,10.21
2022-10-08T20:45:52.621Z,10.15
2022-10-08T20:50:55.413Z,10.04
2022-10-08T20:56:03.916Z,10.08
2022-10-08T21:01:08.978Z,10.04
2022-10-08T21:06:14.696Z,9.88
2022-10-08T21:11:21.111Z,9.90
2022-10-08T21:16:25.662Z,9.92
2022-10-08T21:21:30.279Z,9.97
2022-10-08T21:26:36.568Z,10.06
2022-10-08T21:31:41.087Z,9.98
2022-10-08T21:36:44.658Z,9.87
2022-10-08T21:41:51.830Z,9.85
2022-10-08T21:46:54.653Z,9.74
2022-10-08T21:51:58.275Z,9.75
2022-10-08T21:57:02.413Z,9.65
2022-10-08T22:02:05.285Z,9.50
2022-10-08T22:07:08.034Z,9.41
2022-10-08T22:12:12.233Z,9.34
2022-10-08T22:17:15.131Z,9.25
2022-10-08T22:22:17.910Z,9.25
2022-10-08T22:27:21.905Z,9.19
2022-10-08T22:32:24.862Z,9.19
2022-10-08T22:37:27.641Z,9.12
2022-10-08T22:42:31.799Z,9.14
2022-10-08T22:47:34.545Z,9.11
2022-10-08T22:52:37.263Z,9.12
2022-10-08T22:57:41.616Z,9.21
2022-10-08T23:02:44.331Z,9.09
2022-10-08T23:07:47.086Z,9.04
2022-10-08T23:12:52.618Z,9.05
2022-10-08T23:17:55.404Z,9.12
2022-10-08T23:22:58.188Z,9.05
2022-10-08T23:28:02.320Z,9.06
2022-10-08T23:33:05.320Z,9.16
2022-10-08T23:38:10.539Z,9.16
2022-10-08T23:43:14.685Z,9.10
2022-10-08T23:48:17.493Z,8.97
2022-10-08T23:53:21.602Z,8.90
2022-10-08T23:58:25.835Z,8.84
